createdAt,value
2022-12-04T00:02:23.946Z,57486.97
2022-12-04T00:04:50.703Z,57505.59
2022-12-04T00:07:17.258Z,57431.09
2022-12-04T00:09:43.733Z,57493.19
2022-12-04T00:12:10.431Z,57478.69
2022-12-04T00:14:54.520Z,57489.03
2022-12-04T00:17:23.183Z,57451.78
2022-12-04T00:19:49.638Z,57513.88
2022-12-04T00:22:16.029Z,57478.69
2022-12-04T00:24:42.426Z,57503.53
2022-12-04T00:27:08.853Z,57462.13
2022-12-04T00:29:35.232Z,57484.91
2022-12-04T00:32:01.733Z,57410.41
2022-12-04T00:34:28.254Z,57472.47
2022-12-04T00:36:54.665Z,57518.00
2022-12-04T00:39:21.128Z,57470.41
2022-12-04T00:41:47.539Z,57520.09
2022-12-04T00:44:13.923Z,57472.47
2022-12-04T00:46:40.707Z,57460.06
2022-12-04T00:49:07.185Z,57447.66
2022-12-04T00:51:33.563Z,57520.09
2022-12-04T00:53:59.979Z,57458.00
2022-12-04T00:56:27.842Z,57507.66
2022-12-04T00:58:56.412Z,57551.13
2022-12-04T01:01:23.446Z,57426.94
2022-12-04T01:03:50.763Z,57530.44
2022-12-04T01:06:23.561Z,57513.88
2022-12-04T01:08:51.167Z,57526.28
2022-12-04T01:11:18.226Z,57460.06
2022-12-04T01:13:45.352Z,57453.84
2022-12-04T01:16:28.070Z,57515.94
2022-12-04T01:18:54.624Z,57631.84
2022-12-04T01:21:21.098Z,57509.72
2022-12-04T01:23:48.073Z,57472.47
2022-12-04T01:26:14.719Z,57455.94
2022-12-04T01:28:41.596Z,57449.72
2022-12-04T01:31:10.550Z,57507.66
2022-12-04T01:37:54.540Z,57509.72
2022-12-04T01:49:00.401Z,57532.50
2022-12-04T01:51:37.919Z,57486.97
2022-12-04T01:54:11.805Z,57731.19
2022-12-04T01:56:48.157Z,57542.84
2022-12-04T01:59:17.731Z,57489.03
2022-12-04T02:01:52.065Z,57464.19
2022-12-04T02:04:18.594Z,57509.72
2022-12-04T02:06:45.056Z,57561.47
2022-12-04T02:09:11.875Z,57489.03
2022-12-04T02:11:40.981Z,57621.50
2022-12-04T02:14:30.322Z,57505.59
2022-12-04T02:17:06.239Z,57476.63
2022-12-04T02:20:00.755Z,57451.78
2022-12-04T02:22:35.875Z,57530.44
2022-12-04T02:25:23.219Z,57518.00
2022-12-04T02:28:08.781Z,57451.78
2022-12-04T02:30:39.413Z,57453.84
2022-12-04T02:33:15.986Z,57491.09
2022-12-04T02:36:11.360Z,57518.00
2022-12-04T02:38:41.794Z,57501.44
2022-12-04T02:41:35.073Z,57520.09
2022-12-04T02:44:12.887Z,57493.19
2022-12-04T02:46:44.439Z,57505.59
2022-12-04T02:49:25.424Z,57460.06
2022-12-04T02:51:53.126Z,57453.84
2022-12-04T02:54:25.691Z,57489.03
2022-12-04T02:56:52.420Z,57451.78
2022-12-04T02:59:31.042Z,57503.53
2022-12-04T03:02:00.439Z,57455.94
2022-12-04T03:04:30.712Z,57458.00
2022-12-04T03:07:01.674Z,57497.31
2022-12-04T03:09:29.163Z,57526.28
2022-12-04T03:12:02.568Z,57482.81
2022-12-04T03:14:32.719Z,57472.47
2022-12-04T03:17:04.383Z,57476.63
2022-12-04T03:19:39.787Z,57513.88
2022-12-04T03:22:10.268Z,57515.94
2022-12-04T03:24:40.922Z,57491.09
2022-12-04T03:27:29.986Z,57520.09
2022-12-04T03:30:13.280Z,57501.44
2022-12-04T03:32:45.607Z,57515.94
2022-12-04T03:35:18.209Z,57509.72
2022-12-04T03:38:04.235Z,57505.59
2022-12-04T03:40:53.737Z,57499.38
2022-12-04T03:43:39.687Z,57462.13
2022-12-04T03:46:12.046Z,57522.16
2022-12-04T03:48:49.730Z,57464.19
2022-12-04T03:51:26.605Z,57511.81
2022-12-04T03:53:56.914Z,57505.59
2022-12-04T03:56:45.141Z,57505.59
2022-12-04T03:59:15.674Z,57482.81
2022-12-04T04:01:46.588Z,57507.66
2022-12-04T04:04:14.721Z,57486.97
2022-12-04T04:06:46.780Z,57464.19
2022-12-04T04:09:17.352Z,57503.53
2022-12-04T04:11:50.025Z,57578.03
2022-12-04T04:15:00.343Z,57551.13
2022-12-04T04:17:49.464Z,57505.59
2022-12-04T04:20:40.118Z,57633.91
2022-12-04T04:23:28.287Z,57656.66
2022-12-04T04:25:57.286Z,57507.66
2022-12-04T04:28:31.759Z,57484.91
2022-12-04T04:31:26.171Z,57480.75
2022-12-04T04:34:11.351Z,57486.97
2022-12-04T04:36:53.336Z,57635.97
2022-12-04T04:39:25.588Z,57524.22
2022-12-04T04:42:03.366Z,57507.66
2022-12-04T04:44:38.284Z,57507.66
2022-12-04T04:47:07.166Z,57501.44
2022-12-04T04:49:34.420Z,57745.66
2022-12-04T04:52:02.791Z,57497.31
2022-12-04T04:54:31.099Z,57538.72
2022-12-04T04:56:57.489Z,57468.34
2022-12-04T04:59:23.901Z,57480.75
2022-12-04T05:01:51.736Z,57468.34
2022-12-04T05:04:18.189Z,57509.72
2022-12-04T05:06:44.683Z,57424.88
2022-12-04T05:09:11.087Z,57518.00
2022-12-04T05:11:37.461Z,57667.03
2022-12-04T05:14:05.875Z,57476.63
2022-12-04T05:16:32.633Z,57489.03
2022-12-04T05:19:18.030Z,57447.66
2022-12-04T05:21:44.425Z,57497.31
2022-12-04T05:24:10.822Z,57509.72
2022-12-04T05:26:37.252Z,57420.75
2022-12-04T05:29:03.729Z,57484.91
2022-12-04T05:31:30.243Z,57511.81
2022-12-04T05:33:57.147Z,57509.72
2022-12-04T05:36:23.535Z,57470.41
2022-12-04T05:38:49.909Z,57470.41
2022-12-04T05:41:16.335Z,57546.97
2022-12-04T05:43:42.716Z,57484.91
2022-12-04T05:46:09.166Z,57503.53
2022-12-04T05:48:36.273Z,57811.91
2022-12-04T05:51:10.117Z,57528.34
2022-12-04T05:53:37.386Z,57530.44
2022-12-04T05:56:05.197Z,57534.56
2022-12-04T05:58:35.239Z,57511.81
2022-12-04T06:01:08.353Z,57520.09
2022-12-04T06:03:34.928Z,57540.78
2022-12-04T06:06:01.365Z,57509.72
2022-12-04T06:08:27.751Z,57511.81
2022-12-04T06:10:54.126Z,57515.94
2022-12-04T06:13:20.522Z,57538.72
2022-12-04T06:15:46.913Z,57499.38
2022-12-04T06:18:13.321Z,57518.00
2022-12-04T06:20:40.103Z,57486.97
2022-12-04T06:23:06.557Z,57505.59
2022-12-04T06:25:34.237Z,57551.13
2022-12-04T06:28:00.625Z,57503.53
2022-12-04T06:30:27.036Z,57526.28
2022-12-04T06:32:53.462Z,57551.13
2022-12-04T06:35:19.855Z,57528.34
2022-12-04T06:37:46.272Z,57621.50
2022-12-04T06:40:12.806Z,57530.44
2022-12-04T06:42:39.177Z,57840.88
2022-12-04T06:45:06.562Z,57534.56
2022-12-04T06:47:35.008Z,57563.53
2022-12-04T06:50:01.576Z,57762.22
2022-12-04T06:52:28.135Z,57538.72
2022-12-04T06:54:54.545Z,57530.44
2022-12-04T06:57:20.927Z,57489.03
2022-12-04T06:59:47.324Z,57480.75
2022-12-04T07:02:13.836Z,57503.53
2022-12-04T07:04:40.308Z,57520.09
2022-12-04T07:07:10.024Z,57526.28
2022-12-04T07:09:38.747Z,57526.28
2022-12-04T07:12:05.684Z,57505.59
2022-12-04T07:14:32.198Z,57491.09
2022-12-04T07:16:58.640Z,57513.88
2022-12-04T07:19:25.129Z,57530.44
2022-12-04T07:21:51.518Z,57464.19
2022-12-04T07:24:18.019Z,57478.69
2022-12-04T07:26:44.737Z,57534.56
2022-12-04T07:29:11.253Z,57505.59
2022-12-04T07:31:38.098Z,57549.06
2022-12-04T07:34:04.615Z,57489.03
2022-12-04T07:36:31.036Z,57538.72
2022-12-04T07:38:57.953Z,57530.44
2022-12-04T07:41:24.685Z,57532.50
2022-12-04T07:43:51.130Z,57542.84
2022-12-04T07:46:20.789Z,57553.19
2022-12-04T07:48:47.239Z,57509.72
2022-12-04T07:51:16.151Z,57530.44
2022-12-04T07:53:42.995Z,57557.34
2022-12-04T07:56:10.645Z,57553.19
2022-12-04T07:58:37.293Z,57480.75
2022-12-04T08:01:13.146Z,57580.09
2022-12-04T08:03:46.692Z,57515.94
2022-12-04T08:06:13.988Z,57555.25
2022-12-04T08:08:40.468Z,57518.00
2022-12-04T08:11:12.448Z,57433.16
2022-12-04T08:13:38.892Z,57515.94
2022-12-04T08:16:07.648Z,57528.34
2022-12-04T08:18:34.281Z,57530.44
2022-12-04T08:21:12.421Z,57567.69
2022-12-04T08:23:40.373Z,57511.81
2022-12-04T08:26:07.730Z,57497.31
2022-12-04T08:28:34.231Z,57557.34
2022-12-04T08:31:21.301Z,57555.25
2022-12-04T08:33:49.326Z,57573.88
2022-12-04T08:36:19.252Z,57532.50
2022-12-04T08:38:46.559Z,57563.53
2022-12-04T08:41:15.427Z,57578.03
2022-12-04T08:43:42.072Z,57600.78
2022-12-04T08:46:13.532Z,57528.34
2022-12-04T08:48:40.412Z,57530.44
2022-12-04T08:51:10.210Z,57522.16
2022-12-04T08:53:36.619Z,57546.97
2022-12-04T08:56:04.085Z,57559.41
2022-12-04T08:58:30.740Z,57571.81
2022-12-04T09:01:03.904Z,57565.59
2022-12-04T09:03:31.175Z,57571.81
2022-12-04T09:06:02.541Z,57567.69
2022-12-04T09:08:28.934Z,57561.47
2022-12-04T09:10:55.389Z,57590.44
2022-12-04T09:13:21.835Z,57584.25
2022-12-04T09:15:48.310Z,57513.88
2022-12-04T09:18:14.749Z,57611.13
2022-12-04T09:20:41.156Z,57569.75
2022-12-04T09:23:07.640Z,57528.34
2022-12-04T09:25:37.691Z,57590.44
2022-12-04T09:28:04.661Z,57609.06
2022-12-04T09:30:31.162Z,57584.25
2022-12-04T09:32:57.770Z,57584.25
2022-12-04T09:35:24.210Z,57557.34
2022-12-04T09:37:50.713Z,57565.59
2022-12-04T09:40:33.499Z,57586.31
2022-12-04T09:43:12.429Z,57594.59
2022-12-04T09:45:51.637Z,57551.13
2022-12-04T09:48:19.761Z,57563.53
2022-12-04T09:50:47.279Z,57528.34
2022-12-04T09:53:19.989Z,57544.91
2022-12-04T09:56:07.306Z,57590.44
2022-12-04T09:58:42.156Z,57522.16
2022-12-04T10:01:18.764Z,57571.81
2022-12-04T10:03:45.386Z,57609.06
2022-12-04T10:06:32.374Z,57578.03
2022-12-04T10:09:09.463Z,57584.25
2022-12-04T10:11:43.745Z,57596.66
2022-12-04T10:14:19.838Z,57633.91
2022-12-04T10:16:58.084Z,57604.94
2022-12-04T10:19:43.937Z,57613.22
2022-12-04T10:22:11.580Z,57588.38
2022-12-04T10:24:50.256Z,57604.94
2022-12-04T10:27:24.057Z,57627.69
2022-12-04T10:29:58.721Z,57561.47
2022-12-04T10:32:32.773Z,57782.91
2022-12-04T10:35:19.001Z,57836.72
2022-12-04T10:37:46.048Z,57596.66
2022-12-04T10:40:18.589Z,57629.75
2022-12-04T10:42:53.621Z,57650.47
2022-12-04T10:45:21.673Z,57633.91
2022-12-04T10:47:49.404Z,57631.84
2022-12-04T10:50:23.596Z,57638.03
2022-12-04T10:52:50.446Z,57625.63
2022-12-04T10:55:31.350Z,57625.63
2022-12-04T10:57:57.927Z,57592.50
2022-12-04T11:00:34.270Z,57648.41
2022-12-04T11:03:03.128Z,57644.25
2022-12-04T11:05:33.521Z,57667.03
2022-12-04T11:08:01.283Z,57642.19
2022-12-04T11:10:39.723Z,57664.94
2022-12-04T11:13:16.208Z,57604.94
2022-12-04T11:15:51.044Z,57600.78
2022-12-04T11:18:29.652Z,57638.03
2022-12-04T11:20:58.825Z,57638.03
2022-12-04T11:23:26.659Z,57656.66
2022-12-04T11:25:57.301Z,57693.94
2022-12-04T11:28:46.107Z,57652.53
2022-12-04T11:31:18.333Z,57656.66
2022-12-04T11:33:50.260Z,57849.16
2022-12-04T11:36:22.406Z,57621.50
2022-12-04T11:38:50.086Z,57642.19
2022-12-04T11:41:28.897Z,57652.53
2022-12-04T11:43:59.903Z,57915.38
2022-12-04T11:46:31.812Z,57667.03
2022-12-04T11:48:59.041Z,57621.50
2022-12-04T11:51:47.195Z,57654.59
2022-12-04T11:54:30.305Z,57654.59
2022-12-04T11:57:34.366Z,57671.16
2022-12-04T12:00:30.278Z,57706.34
2022-12-04T12:03:16.542Z,57667.03
2022-12-04T12:06:20.680Z,57679.44
2022-12-04T12:08:58.346Z,57642.19
2022-12-04T12:11:54.223Z,57714.63
2022-12-04T12:14:41.013Z,57662.88
2022-12-04T12:17:23.917Z,57673.22
2022-12-04T12:20:11.870Z,57671.16
2022-12-04T12:22:44.334Z,57658.75
2022-12-04T12:25:22.183Z,57675.28
2022-12-04T12:28:19.566Z,57691.84
2022-12-04T12:31:16.403Z,57646.31
2022-12-04T12:34:04.695Z,57669.09
2022-12-04T12:36:34.232Z,57749.81
2022-12-04T12:39:12.074Z,57718.75
2022-12-04T12:41:44.425Z,57658.75
2022-12-04T12:44:34.543Z,57654.59
2022-12-04T12:47:07.949Z,57635.97
2022-12-04T12:49:40.051Z,57658.75
2022-12-04T12:52:14.571Z,57644.25
2022-12-04T12:54:46.380Z,57671.16
2022-12-04T12:57:17.473Z,57778.78
2022-12-04T12:59:48.871Z,57654.59
2022-12-04T13:02:33.935Z,57617.34
2022-12-04T13:05:05.344Z,57654.59
2022-12-04T13:07:43.958Z,57662.88
2022-12-04T13:10:20.414Z,57664.94
2022-12-04T13:12:48.713Z,57696.00
2022-12-04T13:15:16.776Z,57689.78
2022-12-04T13:17:44.277Z,57683.56
2022-12-04T13:20:21.711Z,57646.31
2022-12-04T13:23:09.971Z,57644.25
2022-12-04T13:25:52.932Z,57627.69
2022-12-04T13:28:50.768Z,57667.03
2022-12-04T13:31:32.553Z,57675.28
2022-12-04T13:34:14.824Z,57673.22
2022-12-04T13:36:57.412Z,57940.22
2022-12-04T13:39:30.985Z,57654.59
2022-12-04T13:42:02.537Z,57667.03
2022-12-04T13:44:29.968Z,57629.75
2022-12-04T13:46:58.007Z,57671.16
2022-12-04T13:49:35.981Z,57658.75
2022-12-04T13:52:06.097Z,57724.97
2022-12-04T13:54:35.658Z,57677.38
2022-12-04T13:57:14.337Z,57689.78
2022-12-04T13:59:41.911Z,57689.78
2022-12-04T14:02:22.542Z,57747.72
2022-12-04T14:05:00.712Z,57687.72
2022-12-04T14:07:28.557Z,57729.09
2022-12-04T14:09:56.805Z,57704.28
2022-12-04T14:12:29.231Z,57629.75
2022-12-04T14:14:58.723Z,57660.81
2022-12-04T14:17:28.524Z,57685.66
2022-12-04T14:20:05.853Z,57675.28
2022-12-04T14:22:34.503Z,57693.94
2022-12-04T14:25:12.990Z,57687.72
2022-12-04T14:27:45.046Z,57662.88
2022-12-04T14:30:38.092Z,57816.03
2022-12-04T14:33:17.665Z,57702.19
2022-12-04T14:36:15.992Z,57795.34
2022-12-04T14:38:48.144Z,57650.47
2022-12-04T14:41:23.752Z,57642.19
2022-12-04T14:43:50.371Z,57627.69
2022-12-04T14:46:32.005Z,57650.47
2022-12-04T14:49:18.226Z,57677.38
2022-12-04T14:52:04.843Z,57642.19
2022-12-04T14:54:40.147Z,57662.88
2022-12-04T14:57:28.332Z,57704.28
2022-12-04T14:59:55.361Z,57685.66
2022-12-04T15:02:35.166Z,57667.03
2022-12-04T15:05:02.344Z,57878.13
2022-12-04T15:07:32.055Z,57673.22
2022-12-04T15:10:19.949Z,57774.63
2022-12-04T15:12:49.936Z,57648.41
2022-12-04T15:15:19.451Z,57696.00
2022-12-04T15:18:14.729Z,57677.38
2022-12-04T15:20:51.124Z,57667.03
2022-12-04T15:23:41.424Z,57677.38
2022-12-04T15:26:11.574Z,57716.69
2022-12-04T15:28:51.214Z,57720.84
2022-12-04T15:31:20.840Z,57615.28
2022-12-04T15:33:49.077Z,57671.16
2022-12-04T15:36:27.640Z,57689.78
2022-12-04T15:38:54.239Z,57662.88
2022-12-04T15:41:35.481Z,57687.72
2022-12-04T15:44:03.034Z,57640.13
2022-12-04T15:46:34.859Z,57654.59
2022-12-04T15:49:16.874Z,57658.75
2022-12-04T15:51:45.856Z,57650.47
2022-12-04T15:54:32.512Z,57702.19
2022-12-04T15:57:13.468Z,57646.31
2022-12-04T15:59:40.016Z,57658.75
2022-12-04T16:02:23.398Z,57646.31
2022-12-04T16:04:50.136Z,57656.66
2022-12-04T16:07:23.961Z,57615.28
2022-12-04T16:10:03.314Z,57604.94
2022-12-04T16:12:31.828Z,57635.97
2022-12-04T16:14:58.504Z,57654.59
2022-12-04T16:17:30.789Z,57704.28
2022-12-04T16:19:57.563Z,57640.13
2022-12-04T16:22:24.733Z,57696.00
2022-12-04T16:24:51.391Z,57671.16
2022-12-04T16:27:22.526Z,57683.56
2022-12-04T16:29:50.157Z,57758.09
2022-12-04T16:32:19.133Z,57689.78
2022-12-04T16:34:46.004Z,57664.94
2022-12-04T16:37:14.283Z,57671.16
2022-12-04T16:39:41.566Z,57640.13
2022-12-04T16:42:22.339Z,57675.28
2022-12-04T16:44:49.259Z,57625.63
2022-12-04T16:47:15.695Z,57704.28
2022-12-04T16:49:42.720Z,57638.03
2022-12-04T16:52:11.272Z,57667.03
2022-12-04T16:54:37.992Z,57691.84
2022-12-04T16:57:04.444Z,57631.84
2022-12-04T16:59:30.890Z,57654.59
2022-12-04T17:01:57.607Z,57656.66
2022-12-04T17:04:24.263Z,57671.16
2022-12-04T17:06:50.928Z,57660.81
2022-12-04T17:09:17.540Z,57660.81
2022-12-04T17:11:44.277Z,57698.06
2022-12-04T17:14:11.121Z,57706.34
2022-12-04T17:16:41.038Z,57687.72
2022-12-04T17:19:08.072Z,57673.22
2022-12-04T17:21:34.617Z,57691.84
2022-12-04T17:24:01.261Z,57646.31
2022-12-04T17:26:28.035Z,57658.75
2022-12-04T17:28:54.453Z,57693.94
2022-12-04T17:31:23.550Z,57669.09
2022-12-04T17:33:50.597Z,57691.84
2022-12-04T17:36:22.369Z,57675.28
2022-12-04T17:38:53.040Z,57712.56
2022-12-04T17:41:19.536Z,57656.66
2022-12-04T17:43:46.011Z,57621.50
2022-12-04T17:46:14.891Z,57667.03
2022-12-04T17:48:41.440Z,57667.03
2022-12-04T17:51:28.692Z,57675.28
2022-12-04T17:53:55.069Z,57898.81
2022-12-04T17:56:23.410Z,57650.47
2022-12-04T17:58:53.176Z,57902.97
2022-12-04T18:01:21.997Z,57638.03
2022-12-04T18:04:00.120Z,57633.91
2022-12-04T18:06:28.929Z,58018.88
2022-12-04T18:08:55.878Z,57660.81
2022-12-04T18:11:26.237Z,57642.19
2022-12-04T18:14:12.887Z,57638.03
2022-12-04T18:16:42.691Z,57691.84
2022-12-04T18:19:09.995Z,57675.28
2022-12-04T18:21:37.013Z,57646.31
2022-12-04T18:24:04.954Z,57828.44
2022-12-04T18:26:40.575Z,57654.59
2022-12-04T18:29:07.614Z,57559.41
2022-12-04T18:31:34.177Z,57683.56
2022-12-04T18:34:00.643Z,57677.38
2022-12-04T18:36:29.658Z,57673.22
2022-12-04T18:38:58.852Z,57687.72
2022-12-04T18:41:26.179Z,57658.75
2022-12-04T18:43:53.102Z,57615.28
2022-12-04T18:46:20.230Z,57664.94
2022-12-04T18:48:47.475Z,57642.19
2022-12-04T18:51:35.721Z,57646.31
2022-12-04T18:54:04.812Z,57667.03
2022-12-04T18:56:33.023Z,57644.25
2022-12-04T18:59:02.045Z,57696.00
2022-12-04T19:01:28.841Z,57621.50
2022-12-04T19:03:57.609Z,57617.34
2022-12-04T19:06:44.138Z,57617.34
2022-12-04T19:09:15.364Z,57791.19
2022-12-04T19:11:42.750Z,57662.88
2022-12-04T19:14:19.262Z,57660.81
2022-12-04T19:16:49.196Z,57675.28
2022-12-04T19:19:15.832Z,57669.09
2022-12-04T19:21:42.551Z,57650.47
2022-12-04T19:24:10.296Z,57654.59
2022-12-04T19:26:36.906Z,57646.31
2022-12-04T19:29:04.462Z,57602.88
2022-12-04T19:31:33.407Z,57654.59
2022-12-04T19:34:00.262Z,57638.03
2022-12-04T19:36:29.788Z,57714.63
2022-12-04T19:38:59.887Z,57652.53
2022-12-04T19:41:30.119Z,57679.44
2022-12-04T19:43:58.371Z,57631.84
2022-12-04T19:46:26.901Z,57627.69
2022-12-04T19:48:56.316Z,57619.41
2022-12-04T19:51:22.757Z,57588.38
2022-12-04T19:53:49.505Z,57656.66
2022-12-04T19:56:21.336Z,57646.31
2022-12-04T19:58:47.914Z,57660.81
2022-12-04T20:01:17.105Z,57592.50
2022-12-04T20:03:44.260Z,57679.44
2022-12-04T20:06:13.622Z,57646.31
2022-12-04T20:08:40.335Z,57635.97
2022-12-04T20:11:12.612Z,57650.47
2022-12-04T20:13:39.804Z,57654.59
2022-12-04T20:16:08.464Z,57840.88
2022-12-04T20:18:39.463Z,57654.59
2022-12-04T20:21:12.278Z,57662.88
2022-12-04T20:23:42.599Z,57683.56
2022-12-04T20:26:11.326Z,57849.16
2022-12-04T20:28:38.089Z,57681.50
2022-12-04T20:31:15.847Z,57675.28
2022-12-04T20:33:43.308Z,57613.22
2022-12-04T20:36:10.588Z,57658.75
2022-12-04T20:38:37.671Z,57598.72
2022-12-04T20:41:05.509Z,57669.09
2022-12-04T20:43:32.417Z,57662.88
2022-12-04T20:45:59.075Z,57691.84
2022-12-04T20:48:25.701Z,57685.66
2022-12-04T20:50:52.275Z,57623.56
2022-12-04T20:53:18.769Z,57679.44
2022-12-04T20:55:56.092Z,57679.44
2022-12-04T20:58:22.840Z,58012.66
2022-12-04T21:00:49.351Z,57667.03
2022-12-04T21:03:16.093Z,57677.38
2022-12-04T21:05:48.248Z,57737.38
2022-12-04T21:08:14.647Z,57671.16
2022-12-04T21:10:41.155Z,57654.59
2022-12-04T21:13:26.722Z,57696.00
2022-12-04T21:16:02.362Z,57733.25
2022-12-04T21:18:31.018Z,57747.72
2022-12-04T21:20:57.525Z,57857.44
2022-12-04T21:23:23.929Z,57749.81
2022-12-04T21:25:50.316Z,57646.31
2022-12-04T21:28:16.692Z,57664.94
2022-12-04T21:30:43.063Z,57677.38
2022-12-04T21:33:09.463Z,57671.16
2022-12-04T21:35:39.444Z,57640.13
2022-12-04T21:38:05.838Z,57656.66
2022-12-04T21:40:38.957Z,57683.56
2022-12-04T21:43:08.530Z,57646.31
2022-12-04T21:45:34.927Z,57671.16
2022-12-04T21:48:01.331Z,57985.75
2022-12-04T21:50:27.739Z,57658.75
2022-12-04T21:52:54.612Z,57838.81
2022-12-04T21:55:20.994Z,57669.09
2022-12-04T21:57:47.368Z,57669.09
2022-12-04T22:00:14.340Z,57669.09
2022-12-04T22:02:40.847Z,57687.72
2022-12-04T22:05:07.599Z,57797.41
2022-12-04T22:07:34.026Z,57638.03
2022-12-04T22:10:04.080Z,57613.22
2022-12-04T22:12:49.071Z,57650.47
2022-12-04T22:15:16.319Z,57658.75
2022-12-04T22:17:42.695Z,57646.31
2022-12-04T22:20:09.414Z,57708.41
2022-12-04T22:22:35.808Z,57664.94
2022-12-04T22:25:02.195Z,57621.50
2022-12-04T22:27:28.555Z,57664.94
2022-12-04T22:29:55.083Z,57681.50
2022-12-04T22:32:21.514Z,57644.25
2022-12-04T22:34:49.022Z,57662.88
2022-12-04T22:37:15.505Z,57667.03
2022-12-04T22:39:41.954Z,57633.91
2022-12-04T22:42:08.355Z,57613.22
2022-12-04T22:44:34.746Z,57836.72
2022-12-04T22:47:01.182Z,57766.38
2022-12-04T22:49:27.856Z,57677.38
2022-12-04T22:51:54.231Z,57687.72
2022-12-04T22:54:20.585Z,57869.84
2022-12-04T22:56:46.986Z,57654.59
2022-12-04T22:59:13.396Z,57633.91
2022-12-04T23:01:40.033Z,57669.09
2022-12-04T23:04:06.425Z,57681.50
2022-12-04T23:06:33.540Z,57696.00
2022-12-04T23:09:02.531Z,57681.50
2022-12-04T23:11:29.407Z,57675.28
2022-12-04T23:14:04.328Z,57654.59
2022-12-04T23:16:32.038Z,57671.16
2022-12-04T23:18:58.779Z,57646.31
2022-12-04T23:21:25.981Z,57667.03
2022-12-04T23:23:53.619Z,57762.22
2022-12-04T23:26:22.679Z,57691.84
2022-12-04T23:28:49.254Z,57679.44
2022-12-04T23:31:15.963Z,57658.75
2022-12-04T23:33:42.617Z,57708.41
2022-12-04T23:36:10.848Z,57696.00
2022-12-04T23:38:40.119Z,57642.19
2022-12-04T23:41:18.260Z,57681.50
2022-12-04T23:43:45.243Z,57700.13
2022-12-04T23:46:12.999Z,57679.44
2022-12-04T23:48:40.909Z,57698.06
2022-12-04T23:51:08.546Z,57683.56
2022-12-04T23:53:35.366Z,57737.38
2022-12-04T23:56:10.336Z,57708.41
2022-12-04T23:58:36.792Z,57720.84
